Map

Track Data

SID SEASON NUMBER BASIN SUBBASIN NAME ISO_TIME NATURE LAT LON WMO_WIND WMO_PRES WMO_AGENCY TRACK_TYPE DIST2LAND LANDFALL IFLAG USA_AGENCY USA_ATCF_ID USA_LAT USA_LON USA_RECORD USA_STATUS USA_WIND USA_PRES USA_SSHS USA_R34_NE USA_R34_SE USA_R34_SW USA_R34_NW USA_R50_NE USA_R50_SE USA_R50_SW USA_R50_NW USA_R64_NE USA_R64_SE USA_R64_SW USA_R64_NW USA_POCI USA_ROCI USA_RMW USA_EYE TOKYO_LAT TOKYO_LON TOKYO_GRADE TOKYO_WIND TOKYO_PRES TOKYO_R50_DIR TOKYO_R50_LONG TOKYO_R50_SHORT TOKYO_R30_DIR TOKYO_R30_LONG TOKYO_R30_SHORT TOKYO_LAND CMA_LAT CMA_LON CMA_CAT CMA_WIND CMA_PRES HKO_LAT HKO_LON HKO_CAT HKO_WIND HKO_PRES NEWDELHI_LAT NEWDELHI_LON NEWDELHI_GRADE NEWDELHI_WIND NEWDELHI_PRES NEWDELHI_CI NEWDELHI_DP NEWDELHI_POCI REUNION_LAT REUNION_LON REUNION_TYPE REUNION_WIND REUNION_PRES REUNION_TNUM REUNION_CI REUNION_RMW REUNION_R34_NE REUNION_R34_SE REUNION_R34_SW REUNION_R34_NW REUNION_R50_NE REUNION_R50_SE REUNION_R50_SW REUNION_R50_NW REUNION_R64_NE REUNION_R64_SE REUNION_R64_SW REUNION_R64_NW BOM_LAT BOM_LON BOM_TYPE BOM_WIND BOM_PRES BOM_TNUM BOM_CI BOM_RMW BOM_R34_NE BOM_R34_SE BOM_R34_SW BOM_R34_NW BOM_R50_NE BOM_R50_SE BOM_R50_SW BOM_R50_NW BOM_R64_NE BOM_R64_SE BOM_R64_SW BOM_R64_NW BOM_ROCI BOM_POCI BOM_EYE BOM_POS_METHOD BOM_PRES_METHOD NADI_LAT NADI_LON NADI_CAT NADI_WIND NADI_PRES WELLINGTON_LAT WELLINGTON_LON WELLINGTON_WIND WELLINGTON_PRES DS824_LAT DS824_LON DS824_STAGE DS824_WIND DS824_PRES TD9636_LAT TD9636_LON TD9636_STAGE TD9636_WIND TD9636_PRES TD9635_LAT TD9635_LON TD9635_WIND TD9635_PRES TD9635_ROCI NEUMANN_LAT NEUMANN_LON NEUMANN_CLASS NEUMANN_WIND NEUMANN_PRES MLC_LAT MLC_LON MLC_CLASS MLC_WIND MLC_PRES USA_GUST BOM_GUST BOM_GUST_PER REUNION_GUST REUNION_GUST_PER USA_SEAHGT USA_SEARAD_NE USA_SEARAD_SE USA_SEARAD_SW USA_SEARAD_NW STORM_SPEED STORM_DIR
1949181N06140 1949 41 WP MM ELAINE 1949-06-30 00:00:00 TS 5.50000 140.300 main 829 823 __O___________ -1 5.50000 140.300 0 1008 5 284
1949181N06140 1949 41 WP MM ELAINE 1949-06-30 03:00:00 TS 5.56001 140.063 main 834 826 __P___________ -1 5.56001 140.063 0 1008 5 281
1949181N06140 1949 41 WP MM ELAINE 1949-06-30 06:00:00 TS 5.60000 139.800 main 826 819 __O___________ -1 5.60000 139.800 0 1008 6 275
1949181N06140 1949 41 WP MM ELAINE 1949-06-30 09:00:00 TS 5.60751 139.500 main 819 805 __P___________ -1 5.60751 139.500 0 1008 6 270
1949181N06140 1949 41 WP MM ELAINE 1949-06-30 12:00:00 TS 5.60000 139.200 main 805 795 __O___________ -1 5.60000 139.200 0 1008 5 269
1949181N06140 1949 41 WP MM ELAINE 1949-06-30 15:00:00 TS 5.59997 138.950 main 795 781 __P___________ -1 5.59997 138.950 0 1008 5 270
1949181N06140 1949 41 WP MM ELAINE 1949-06-30 18:00:00 TS 5.60000 138.700 main 781 769 __O___________ -1 5.60000 138.700 0 1008 5 270
1949181N06140 1949 41 WP MM ELAINE 1949-06-30 21:00:00 TS 5.60001 138.400 main 769 757 __P___________ -1 5.60001 138.400 0 1008 6 270
1949181N06140 1949 41 WP MM ELAINE 1949-07-01 00:00:00 TS 5.60000 138.100 main 757 750 __O___________ -1 5.60000 138.100 0 1008 6 269
1949181N06140 1949 41 WP MM ELAINE 1949-07-01 03:00:00 TS 5.59248 137.842 main 747 740 __P___________ -1 5.59248 137.842 0 1007 5 270
1949181N06140 1949 41 WP MM ELAINE 1949-07-01 06:00:00 TS 5.60000 137.600 main 740 733 __O___________ -1 5.60000 137.600 0 1006 5 277
1949181N06140 1949 41 WP MM ELAINE 1949-07-01 09:00:00 TS 5.64998 137.358 main 733 733 __P___________ -1 5.64998 137.358 0 1006 5 281
1949181N06140 1949 41 WP MM ELAINE 1949-07-01 12:00:00 TS 5.70000 137.100 main 736 729 __O___________ -1 5.70000 137.100 0 1006 6 275
1949181N06140 1949 41 WP MM ELAINE 1949-07-01 15:00:00 TS 5.70000 136.807 main 729 724 __P___________ -1 5.70000 136.807 0 1006 6 270
1949181N06140 1949 41 WP MM ELAINE 1949-07-01 18:00:00 TS 5.70000 136.500 main 724 720 __O___________ -1 5.70000 136.500 0 1006 6 274
1949181N06140 1949 41 WP MM ELAINE 1949-07-01 21:00:00 TS 5.74250 136.193 main 720 720 __P___________ -1 5.74250 136.193 0 1006 6 280
1949181N06140 1949 41 WP MM ELAINE 1949-07-02 00:00:00 TS 5.80000 135.900 main 729 728 __O___________ -1 5.80000 135.900 0 1006 6 281
1949181N06140 1949 41 WP MM ELAINE 1949-07-02 03:00:00 TS 5.84998 135.642 main 728 728 __P___________ -1 5.84998 135.642 0 1006 5 281
1949181N06140 1949 41 WP MM ELAINE 1949-07-02 06:00:00 TS 5.90000 135.400 main 739 739 __O___________ -1 5.90000 135.400 0 1006 5 282
1949181N06140 1949 41 WP MM ELAINE 1949-07-02 09:00:00 TS 5.94999 135.150 main 740 740 __P___________ -1 5.94999 135.150 0 1006 5 281
1949181N06140 1949 41 WP MM ELAINE 1949-07-02 12:00:00 TS 6.00000 134.900 main 747 741 __O___________ -1 6.00000 134.900 0 1006 5 281
1949181N06140 1949 41 WP MM ELAINE 1949-07-02 15:00:00 TS 6.04249 134.650 main 738 738 __P___________ -1 6.04249 134.650 0 1006 5 281
1949181N06140 1949 41 WP MM ELAINE 1949-07-02 18:00:00 TS 6.10000 134.400 main 744 737 __O___________ -1 6.10000 134.400 0 1006 5 287
1949181N06140 1949 41 WP MM ELAINE 1949-07-02 21:00:00 TS 6.19249 134.150 main 737 717 __P___________ -1 6.19249 134.150 0 1006 5 292
1949181N06140 1949 41 WP MM ELAINE 1949-07-03 00:00:00 TS 6.30000 133.900 main 717 706 __O___________ -1 6.30000 133.900 0 1006 5 292
1949181N06140 1949 41 WP MM ELAINE 1949-07-03 03:00:00 TS 6.39250 133.642 main 697 687 __P___________ -1 6.39250 133.642 0 1006 5 292
1949181N06140 1949 41 WP MM ELAINE 1949-07-03 06:00:00 TS 6.50000 133.400 main 687 678 __O___________ -1 6.50000 133.400 0 1006 5 300
1949181N06140 1949 41 WP MM ELAINE 1949-07-03 09:00:00 TS 6.64247 133.200 main 678 677 __P___________ -1 6.64247 133.200 0 1006 5 307
1949181N06140 1949 41 WP MM ELAINE 1949-07-03 12:00:00 TS 6.80000 133.000 main 677 670 __O___________ -1 6.80000 133.000 0 1006 5 306
1949181N06140 1949 41 WP MM ELAINE 1949-07-03 15:00:00 TS 6.95750 132.758 main 678 651 __P___________ -1 6.95750 132.758 0 1006 6 301
1949181N06140 1949 41 WP MM ELAINE 1949-07-03 18:00:00 TS 7.10000 132.500 main 651 629 __O___________ -1 7.10000 132.500 0 1006 6 296
1949181N06140 1949 41 WP MM ELAINE 1949-07-03 21:00:00 TS 7.20749 132.250 main 629 596 __P___________ -1 7.20749 132.250 0 1006 5 292
1949181N06140 1949 41 WP MM ELAINE 1949-07-04 00:00:00 TS 7.30000 132.000 main 596 562 __O___________ -1 7.30000 132.000 0 1006 5 291
1949181N06140 1949 41 WP MM ELAINE 1949-07-04 03:00:00 TS 7.39999 131.750 main 573 562 __P___________ -1 7.39999 131.750 0 1006 12 95
1949181N06140 1949 41 WP MM ELAINE 1949-07-04 06:00:00 TS 7.20000 133.171 main 725 725 O_O______O_O__ jtwc_wp WP031949 6.80000 135.400 20 -1 7.50000 131.500 0 1006 6.80000 135.400 TC 20 6.80000 135.400 20 1005 180 16 98
1949181N06140 1949 41 WP MM ELAINE 1949-07-04 09:00:00 TS 7.18012 133.343 main 733 725 P_P______P_P__ WP031949 6.89521 134.733 20 -1 7.60747 131.258 0 1006 6.89521 134.733 TC 20 6.89521 134.733 20 1005 210 0 90
1949181N06140 1949 41 WP MM ELAINE 1949-07-04 12:00:00 TS 7.20000 133.214 main 725 695 O_O______OOO__ jtwc_wp WP031949 7.00000 134.100 20 -1 7.70000 131.000 0 1006 7.00000 134.100 TC 20 7.00000 134.100 1 20 7.00000 134.100 20 1005 240 4 282
1949181N06140 1949 41 WP MM ELAINE 1949-07-04 15:00:00 TS 7.27203 132.907 main 695 651 P_P______PPP__ WP031949 7.12740 133.527 22 -1 7.74249 130.707 0 1006 7.12740 133.527 TC 22 7.19886 133.585 1 21 7.12740 133.527 22 1005 210 8 286
1949181N06140 1949 41 WP MM ELAINE 1949-07-04 18:00:00 TS 7.42073 132.463 main 651 606 O_O______OPO__ jtwc_wp WP031949 7.30000 133.000 25 -1 7.80000 130.400 0 19 1006 7.30000 133.000 TC 25 7.39796 133.065 1 22 7.30000 133.000 25 1005 180 9 293
1949181N06140 1949 41 WP MM ELAINE 1949-07-04 21:00:00 TS 7.63805 132.028 main 595 551 P_P______PPP__ WP031949 7.54989 132.500 25 -1 7.94248 130.100 0 24 1004 7.54989 132.500 TC 25 7.59809 132.538 1 23 7.54989 132.500 25 1005 210 10 296
1949181N06140 1949 41 WP MM ELAINE 1949-07-05 00:00:00 TS 7.86000 131.560 main 551 497 O_O______OOO__ jtwc_wp WP031949 7.80000 132.000 25 -1 8.10000 129.800 1 29 1003 7.80000 132.000 TC 25 7.80000 132.000 1 25 7.80000 132.000 25 1005 240 10 291
1949181N06140 1949 41 WP MM ELAINE 1949-07-05 03:00:00 TS 8.01071 131.071 main 497 443 P_P______PPP__ WP031949 7.94993 131.465 25 -1 8.19994 129.515 1 29 1001 7.94993 131.465 TC 25 8.00384 131.447 1 25 7.94993 131.465 25 1005 240 10 287
1949181N06140 1949 41 WP MM ELAINE 1949-07-05 06:00:00 TS 8.16143 130.556 main 444 382 O_O______OPO__ jtwc_wp WP031949 8.10000 130.900 25 -1 8.30000 129.200 1 29 1000 8.10000 130.900 TC 25 8.20717 130.880 1 25 8.10000 130.900 25 1005 240 11 290
1949181N06140 1949 41 WP MM ELAINE 1949-07-05 09:00:00 TS 8.38131 130.016 main 382 335 P_P______PPP__ WP031949 8.34987 130.323 25 -1 8.45000 128.815 1 33 999 8.34987 130.323 TC 25 8.40691 130.297 1 25 8.34987 130.323 25 1005 240 12 292
1949181N06140 1949 41 WP MM ELAINE 1949-07-05 12:00:00 TS 8.60000 129.440 main 324 266 O_O______OOO__ jtwc_wp WP031949 8.60000 129.700 25 -1 8.60000 128.400 2 38 998 8.60000 129.700 TC 25 8.60000 129.700 1 25 8.60000 129.700 25 1005 240 12 287
1949181N06140 1949 41 WP MM ELAINE 1949-07-05 15:00:00 TS 8.75028 128.811 main 270 209 P_P______PPP__ WP031949 8.75756 128.992 25 -1 8.69241 128.015 2 38 997 8.75756 128.992 TC 25 8.78631 129.065 1 25 8.75756 128.992 25 1004 240 13 283
1949181N06140 1949 41 WP MM ELAINE 1949-07-05 18:00:00 TS 8.89303 128.184 main 209 146 O_O______OPO__ jtwc_wp WP031949 8.90000 128.300 25 -1 8.80000 127.600 2 38 996 8.90000 128.300 TC 25 8.96514 128.420 1 25 8.90000 128.300 25 1004 240 12 286
1949181N06140 1949 41 WP MM ELAINE 1949-07-05 21:00:00 TS 9.08268 127.611 main 146 99 P_P______PPP__ WP031949 9.09234 127.720 25 -1 9.00002 127.108 2 38 995 9.09234 127.720 TC 25 9.13635 127.790 1 25 9.09234 127.720 25 1003 240 12 290
1949181N06140 1949 41 WP MM ELAINE 1949-07-06 00:00:00 TS 9.28000 127.080 main 99 49 O_O______OOO__ jtwc_wp WP031949 9.30000 127.200 25 -1 9.20000 126.600 2 38 995 9.30000 127.200 TC 25 9.30000 127.200 1 25 9.30000 127.200 25 1003 240 11 290
1949181N06140 1949 41 WP MM ELAINE 1949-07-06 03:00:00 TS 9.45782 126.578 main 55 15 P_P______PPP__ WP031949 9.51493 126.685 25 -1 9.29988 126.150 2 43 994 9.51493 126.685 TC 25 9.44444 126.686 1 25 9.51493 126.685 25 1002 240 10 289
1949181N06140 1949 41 WP MM ELAINE 1949-07-06 06:00:00 TS 9.61685 126.102 main 15 10 O_O______OPO__ jtwc_wp WP031949 9.70000 126.200 25 -1 9.40000 125.700 3 48 994 9.70000 126.200 TC 25 9.58427 126.212 1 25 9.70000 126.200 25 1002 240 10 288
1949181N06140 1949 41 WP MM ELAINE 1949-07-06 09:00:00 TS 9.74779 125.649 main 0 0 P_P______PPP__ WP031949 9.80735 125.757 25 -1 9.58493 125.215 3 48 993 9.80735 125.757 TC 25 9.73200 125.757 1 25 9.80735 125.757 25 1001 240 9 286
1949181N06140 1949 41 WP MM ELAINE 1949-07-06 12:00:00 TS 9.88000 125.180 main 24 10 O_O______OOO__ jtwc_wp WP031949 9.90000 125.300 25 -1 9.80000 124.700 3 48 993 9.90000 125.300 TC 25 9.90000 125.300 1 25 9.90000 125.300 25 1001 240 10 286
1949181N06140 1949 41 WP MM ELAINE 1949-07-06 15:00:00 TS 10.0257 124.637 main 10 0 P_P______PPP__ WP031949 10.0200 124.750 25 -1 9.98501 124.142 3 53 992 10.0200 124.750 TC 25 10.0831 124.795 1 26 10.0200 124.750 25 1000 240 11 288
1949181N06140 1949 41 WP MM ELAINE 1949-07-06 18:00:00 TS 10.2180 124.097 main 11 0 O_O______OPO__ jtwc_wp WP031949 10.2000 124.200 25 -1 10.2000 123.600 3 58 992 10.2000 124.200 TC 25 10.2900 124.285 1 27 10.2000 124.200 25 1000 240 11 294
1949181N06140 1949 41 WP MM ELAINE 1949-07-06 21:00:00 TS 10.4723 123.624 main 10 0 P_P______PPP__ WP031949 10.4548 123.742 27 -1 10.4700 123.112 3 58 992 10.4548 123.742 TC 27 10.5269 123.782 1 28 10.4548 123.742 27 999 270 11 303
1949181N06140 1949 41 WP MM ELAINE 1949-07-07 00:00:00 TS 10.8000 123.180 main 0 0 O_O______OOO__ jtwc_wp WP031949 10.8000 123.300 30 -1 10.8000 122.700 3 58 992 10.8000 123.300 TC 30 10.8000 123.300 1 30 10.8000 123.300 30 999 300 12 310
1949181N06140 1949 41 WP MM ELAINE 1949-07-07 03:00:00 TS 11.2171 122.713 main 0 0 P_P______PPP__ WP031949 11.2576 122.785 32 -1 11.2074 122.363 3 58 991 11.2576 122.785 TC 32 11.1057 122.849 1 32 11.2576 122.785 32 998 270 12 313
1949181N06140 1949 41 WP MM ELAINE 1949-07-07 06:00:00 TS 11.6294 122.284 main 0 0 O_O______OPO__ jtwc_wp WP031949 11.7000 122.300 35 0 11.6000 122.100 3 58 991 11.7000 122.300 TC 35 11.4471 122.420 1 35 11.7000 122.300 35 997 240 10 313
1949181N06140 1949 41 WP MM ELAINE 1949-07-07 09:00:00 TS 11.9104 121.943 main 15 15 P_P______PPP__ WP031949 11.9648 121.935 37 0 11.8424 121.907 3 58 990 11.9648 121.935 TC 37 11.8151 122.005 1 37 11.9648 121.935 37 996 240 6 323
1949181N06140 1949 41 WP MM ELAINE 1949-07-07 12:00:00 TS 12.1000 121.919 main 35 21 O_O______OOO__ jtwc_wp WP031949 12.2000 121.600 40 0 12.1000 121.700 3 58 990 12.2000 121.600 TC 40 12.2000 121.600 2 40 12.2000 121.600 40 996 240 6 329
1949181N06140 1949 41 WP MM ELAINE 1949-07-07 15:00:00 TS 12.4222 121.625 main 21 0 P_P______PPP__ WP031949 12.5200 121.207 42 0 12.5125 121.380 3 58 990 12.5200 121.207 TC 42 12.5328 121.180 2 41 12.5200 121.207 42 995 240 11 315
1949181N06140 1949 41 WP MM ELAINE 1949-07-07 18:00:00 TS 12.8365 121.154 main 0 0 O_O______OPO__ jtwc_wp WP031949 12.9000 120.800 45 0 13.0000 121.000 3 58 990 12.9000 120.800 TC 45 12.8875 120.769 2 42 12.9000 120.800 45 995 240 13 311
1949181N06140 1949 41 WP MM ELAINE 1949-07-07 21:00:00 TS 13.2861 120.601 main 0 0 P_P______PPP__ WP031949 13.3050 120.392 45 0 13.4698 120.637 3 58 989 13.3050 120.392 TC 45 13.2985 120.373 2 43 13.3050 120.392 45 994 240 14 312
1949181N06140 1949 41 WP MM ELAINE 1949-07-08 00:00:00 TS 13.8000 120.050 main 49 49 O_O______OOO__ jtwc_wp WP031949 13.8000 120.000 45 0 14.0000 120.200 3 58 989 13.8000 120.000 TC 45 13.8000 120.000 2 45 13.8000 120.000 45 994 240 15 318
1949181N06140 1949 41 WP MM ELAINE 1949-07-08 03:00:00 TS 14.3834 119.599 main 70 63 P_P______PPP__ WP031949 14.3975 119.635 45 0 14.6653 119.601 3 58 988 14.3975 119.635 TC 45 14.4680 119.638 2 46 14.3975 119.635 45 993 210 14 327
1949181N06140 1949 41 WP MM ELAINE 1949-07-08 06:00:00 TS 15.0061 119.250 main 78 78 O_O______OPO__ jtwc_wp WP031949 15.1000 119.300 45 0 15.3000 119.000 3 58 987 15.1000 119.300 TC 45 15.2199 119.298 2 47 15.1000 119.300 45 993 180 14 335
1949181N06140 1949 41 WP MM ELAINE 1949-07-08 09:00:00 TS 15.6449 118.993 main 87 78 P_P______PPP__ WP031949 15.9149 118.992 47 0 15.7373 118.562 3 58 986 15.9149 118.992 TC 47 15.9869 118.985 2 48 15.9149 118.992 47 992 180 13 339
1949181N06140 1949 41 WP MM ELAINE 1949-07-08 12:00:00 TS 16.2500 118.767 main 101 98 O_O______OOO__ jtwc_wp WP031949 16.7000 118.700 50 0 16.1000 118.200 3 58 985 16.7000 118.700 TC 50 16.7000 118.700 2 50 16.7000 118.700 50 992 180 12 337
1949181N06140 1949 41 WP MM ELAINE 1949-07-08 15:00:00 TS 16.7614 118.505 main 149 149 P_P______PPP__ WP031949 17.3025 118.377 50 0 16.5000 117.820 3 58 984 17.3025 118.377 TC 50 17.2885 118.457 2 50 17.3025 118.377 50 991 180 12 333
1949181N06140 1949 41 WP MM ELAINE 1949-07-08 18:00:00 TS 17.3079 118.202 main 203 203 O_O______OPO__ jtwc_wp WP031949 17.8000 118.100 50 0 16.9000 117.500 3 58 984 17.8000 118.100 TC 50 17.8118 118.241 2 50 17.8000 118.100 50 991 180 12 335
1949181N06140 1949 41 WP MM ELAINE 1949-07-08 21:00:00 TS 17.8561 117.964 main 245 245 P_P______PPP__ WP031949 18.2798 117.950 50 0 17.2924 117.285 3 58 984 18.2798 117.950 TC 50 18.2792 118.029 2 50 18.2798 117.950 50 990 180 12 337
1949181N06140 1949 41 WP MM ELAINE 1949-07-09 00:00:00 TS 18.3810 117.724 main 289 289 O_O______OOO__ jtwc_wp WP031949 18.7000 117.800 50 0 17.7000 117.100 3 58 984 18.7000 117.800 TC 50 18.7000 117.800 2 50 18.7000 117.800 50 990 180 12 332
1949181N06140 1949 41 WP MM ELAINE 1949-07-09 03:00:00 TS 18.8832 117.395 main 338 338 P_P______PPP__ WP031949 19.0650 117.522 50 0 18.1200 116.865 3 58 984 19.0650 117.522 TC 50 19.1010 117.541 2 50 19.0650 117.522 50 990 180 11 326
1949181N06140 1949 41 WP MM ELAINE 1949-07-09 06:00:00 TS 19.2519 117.092 main 381 361 O_O______OPO__ jtwc_wp WP031949 19.4000 117.200 50 0 18.6000 116.600 3 58 985 19.4000 117.200 TC 50 19.4595 117.259 2 50 19.4000 117.200 50 991 180 9 324
1949181N06140 1949 41 WP MM ELAINE 1949-07-09 09:00:00 TS 19.6430 116.807 main 361 310 P_P______PPP__ WP031949 19.7423 116.930 50 0 19.2000 116.300 3 53 986 19.7423 116.930 TC 50 19.7883 116.947 2 50 19.7423 116.930 50 991 150 10 324
1949181N06140 1949 41 WP MM ELAINE 1949-07-09 12:00:00 TS 20.0400 116.480 main 310 259 O_O______OOO__ jtwc_wp WP031949 20.1000 116.600 50 0 19.8000 116.000 3 48 988 20.1000 116.600 TC 50 20.1000 116.600 2 50 20.1000 116.600 50 992 120 11 319
1949181N06140 1949 41 WP MM ELAINE 1949-07-09 15:00:00 TS 20.4491 116.056 main 259 203 P_P______PPP__ WP031949 20.5228 116.108 50 0 20.2724 115.742 3 43 989 20.5228 116.108 TC 50 20.4050 116.213 2 48 20.5228 116.108 50 993 120 11 314
1949181N06140 1949 41 WP MM ELAINE 1949-07-09 18:00:00 TS 20.8273 115.610 main 203 161 O_O______OPO__ jtwc_wp WP031949 20.9000 115.600 50 0 20.7000 115.500 2 38 990 20.9000 115.600 TC 50 20.7062 115.794 2 47 20.9000 115.600 50 994 120 10 312
1949181N06140 1949 41 WP MM ELAINE 1949-07-09 21:00:00 TS 21.1085 115.266 main 161 118 P_P______PPP__ WP031949 21.1147 115.242 47 0 21.1422 115.294 2 38 992 21.1147 115.242 TC 47 21.0042 115.353 2 46 21.1147 115.242 47 994 90 8 311
1949181N06140 1949 41 WP MM ELAINE 1949-07-10 00:00:00 TS 21.3750 114.925 main 118 70 O_O______OOO__ jtwc_wp WP031949 21.3000 114.900 45 0 21.6000 115.000 2 38 995 21.3000 114.900 TC 45 21.3000 114.900 2 45 21.3000 114.900 45 995 60 10 312
1949181N06140 1949 41 WP MM ELAINE 1949-07-10 03:00:00 TS 21.7449 114.497 main 70 33 P_P______P_P__ WP031949 21.5845 114.510 42 0 22.1528 114.481 2 33 996 21.5845 114.510 TC 42 2 21.5704 114.478 42 996 60 11 308
1949181N06140 1949 41 WP MM ELAINE 1949-07-10 06:00:00 TS 22.0750 113.975 main 33 0 O_O______O_O__ jtwc_wp WP031949 21.9000 114.000 40 0 22.6000 113.900 1 29 998 21.9000 114.000 TC 40 2 21.9000 114.000 40 998 60 12 295
1949181N06140 1949 41 WP MM ELAINE 1949-07-10 09:00:00 TS 22.2630 113.288 main 0 0 P_P______P____ WP031949 22.1332 113.257 40 0 22.7824 113.414 1 24 999 22.1332 113.257 TC 40 2 14 289
1949181N06140 1949 41 WP MM ELAINE 1949-07-10 12:00:00 TS 22.5333 112.556 main 0 0 O_O______O____ jtwc_wp WP031949 22.5000 112.500 40 0 22.8000 113.000 0 19 1000 22.5000 112.500 TC 40 15 308
1949181N06140 1949 41 WP MM ELAINE 1949-07-10 15:00:00 TS 23.1810 112.036 main 0 0 P________P____ WP031949 23.1810 112.036 40 0 0 23.1810 112.036 TC 40 18 327
1949181N06140 1949 41 WP MM ELAINE 1949-07-10 18:00:00 TS 24.0000 111.500 main 0 0 O________O____ jtwc_wp WP031949 24.0000 111.500 40 0 24.0000 111.500 TC 40 21 320
1949181N06140 1949 41 WP MM ELAINE 1949-07-10 21:00:00 TS 24.7501 110.597 main 0 0 P________P____ WP031949 24.7501 110.597 40 0 24.7501 110.597 TC 40 24 310
1949181N06140 1949 41 WP MM ELAINE 1949-07-11 00:00:00 TS 25.5000 109.500 main 0 0 O________O____ jtwc_wp WP031949 25.5000 109.500 40 0 25.5000 109.500 TC 40 26 306
1949181N06140 1949 41 WP MM ELAINE 1949-07-11 03:00:00 TS 26.2887 108.291 main 0 0 P________P____ WP031949 26.2887 108.291 37 0 26.2887 108.291 TC 37 26 306
1949181N06140 1949 41 WP MM ELAINE 1949-07-11 06:00:00 TS 27.0000 107.200 main 0 0 O________O____ jtwc_wp WP031949 27.0000 107.200 35 0 27.0000 107.200 TC 35 21 308
1949181N06140 1949 41 WP MM ELAINE 1949-07-11 09:00:00 TS 27.5490 106.482 main 0 0 P________P____ WP031949 27.5490 106.482 32 -1 27.5490 106.482 TC 32 15 313
1949181N06140 1949 41 WP MM ELAINE 1949-07-11 12:00:00 TS 28.0000 106.000 main 0 O________O____ jtwc_wp WP031949 28.0000 106.000 30 -1 28.0000 106.000 TC 30 12 317

Digital Typhoon Data and Search

About IBTrACS Database

This database is a web-friendly format of International Best Track Archive for Climate Stewardship (IBTrACS), a global best track data archive curated by NOAA dating back to 1842.

Updated: 2021-11-26